createdAt,value
2018-12-11T00:00:21.552Z,94.42
2018-12-11T00:01:29.612Z,93.75
2018-12-11T00:02:37.668Z,94.32
2018-12-11T00:03:45.694Z,93.28
2018-12-11T00:04:53.783Z,93.75
2018-12-11T00:06:01.838Z,94.42
2018-12-11T00:07:09.894Z,94.04
2018-12-11T00:08:17.933Z,93.85
2018-12-11T00:09:25.993Z,93.94
2018-12-11T00:10:34.054Z,94.04
2018-12-11T00:11:42.127Z,95.17
2018-12-11T00:12:50.169Z,94.89
2018-12-11T00:13:58.222Z,95.17
2018-12-11T00:15:06.269Z,95.17
2018-12-11T00:16:14.326Z,95.36
2018-12-11T00:17:22.391Z,95.45
2018-12-11T00:18:30.454Z,95.45
2018-12-11T00:19:38.502Z,95.64
2018-12-11T00:20:46.555Z,95.45
2018-12-11T00:21:54.619Z,95.64
2018-12-11T00:23:02.666Z,95.55
2018-12-11T00:24:10.716Z,95.45
2018-12-11T00:25:18.764Z,97.25
2018-12-11T00:26:26.827Z,96.02
2018-12-11T00:27:34.862Z,96.02
2018-12-11T00:28:45.017Z,96.02
2018-12-11T00:29:57.275Z,96.50
2018-12-11T00:31:06.915Z,96.31
2018-12-11T00:32:14.377Z,96.21
2018-12-11T00:33:22.430Z,96.02
2018-12-11T00:34:30.500Z,96.31
2018-12-11T00:35:38.540Z,97.25
2018-12-11T00:36:46.600Z,97.16
2018-12-11T00:37:54.665Z,98.10
2018-12-11T00:39:02.700Z,99.24
2018-12-11T00:40:10.768Z,98.58
2018-12-11T00:41:18.819Z,97.63
2018-12-11T00:42:26.965Z,98.01
2018-12-11T00:43:34.916Z,97.72
2018-12-11T00:44:42.989Z,98.67
2018-12-11T00:45:51.046Z,98.67
2018-12-11T00:46:59.081Z,98.86
2018-12-11T00:48:07.139Z,98.67
2018-12-11T00:49:15.165Z,99.99
2018-12-11T00:50:23.241Z,99.05
2018-12-11T00:51:31.305Z,99.05
2018-12-11T00:52:39.361Z,99.24
2018-12-11T00:53:47.410Z,98.96
2018-12-11T00:54:55.433Z,98.77
2018-12-11T00:56:03.525Z,99.43
2018-12-11T00:57:11.588Z,99.24
2018-12-11T00:58:19.627Z,99.52
2018-12-11T00:59:27.683Z,99.71
2018-12-11T01:00:35.738Z,99.62
2018-12-11T01:01:43.790Z,99.99
2018-12-11T01:02:51.832Z,99.62
2018-12-11T01:03:59.892Z,99.99
2018-12-11T01:05:07.951Z,99.05
2018-12-11T01:06:15.989Z,99.90
2018-12-11T01:07:24.053Z,99.99
2018-12-11T01:08:32.109Z,99.99
2018-12-11T01:09:40.152Z,99.99
2018-12-11T01:10:48.208Z,99.76
2018-12-11T01:11:56.284Z,99.28
2018-12-11T01:13:04.398Z,99.99
2018-12-11T01:14:12.374Z,99.99
2018-12-11T01:15:20.433Z,99.80
2018-12-11T01:16:28.486Z,99.43
2018-12-11T01:17:36.547Z,98.90
2018-12-11T01:18:44.584Z,99.99
2018-12-11T01:19:52.632Z,99.99
2018-12-11T01:21:00.700Z,99.99
2018-12-11T01:22:08.754Z,99.99
2018-12-11T01:23:16.800Z,99.99
2018-12-11T01:24:24.840Z,99.99
2018-12-11T01:25:32.913Z,99.99
2018-12-11T01:26:41.064Z,99.99
2018-12-11T01:27:49.040Z,99.99
2018-12-11T01:28:57.055Z,99.99
2018-12-11T01:30:05.120Z,99.99
2018-12-11T01:31:13.177Z,99.99
2018-12-11T01:32:21.242Z,99.99
2018-12-11T01:33:29.364Z,99.99
2018-12-11T01:34:37.412Z,99.99
2018-12-11T01:35:46.533Z,99.99
2018-12-11T01:36:53.434Z,99.99
2018-12-11T01:38:01.512Z,99.99
2018-12-11T01:39:09.957Z,99.99
2018-12-11T01:40:17.595Z,99.99
2018-12-11T01:41:26.035Z,99.99
2018-12-11T01:42:33.707Z,99.99
2018-12-11T01:43:41.758Z,99.99
2018-12-11T01:44:49.814Z,99.99
2018-12-11T01:45:58.246Z,99.99
2018-12-11T01:47:05.925Z,99.99
2018-12-11T01:48:13.967Z,99.99
2018-12-11T01:49:23.096Z,99.99
2018-12-11T01:50:30.076Z,99.99
2018-12-11T01:51:38.129Z,99.99
2018-12-11T01:52:46.176Z,99.99
2018-12-11T01:53:54.599Z,99.99
2018-12-11T01:55:02.287Z,99.99
2018-12-11T01:56:10.349Z,99.99
2018-12-11T01:57:18.399Z,99.99
2018-12-11T01:58:26.453Z,99.99
2018-12-11T01:59:34.505Z,99.99
2018-12-11T02:00:42.561Z,99.99
2018-12-11T02:01:50.621Z,99.99
2018-12-11T02:02:58.749Z,99.99
2018-12-11T02:04:06.717Z,99.99
2018-12-11T02:05:14.764Z,99.99
2018-12-11T02:06:22.817Z,99.99
2018-12-11T02:07:30.883Z,99.99
2018-12-11T02:08:38.926Z,99.99
2018-12-11T02:09:47.337Z,99.99
2018-12-11T02:10:55.037Z,99.99
2018-12-11T02:12:03.168Z,99.99
2018-12-11T02:13:11.136Z,99.99
2018-12-11T02:14:19.271Z,99.99
2018-12-11T02:15:27.234Z,99.99
2018-12-11T02:16:35.288Z,99.99
2018-12-11T02:17:43.444Z,99.99
2018-12-11T02:18:51.417Z,99.99
2018-12-11T02:19:59.460Z,99.99
2018-12-11T02:21:07.510Z,99.99
2018-12-11T02:22:15.543Z,99.89
2018-12-11T02:23:23.625Z,99.99
2018-12-11T02:24:31.677Z,99.89
2018-12-11T02:25:39.709Z,98.47
2018-12-11T02:26:47.776Z,98.28
2018-12-11T02:27:55.823Z,98.66
2018-12-11T02:29:03.882Z,98.47
2018-12-11T02:30:11.937Z,99.89
2018-12-11T02:31:19.987Z,99.99
2018-12-11T02:32:28.226Z,99.99
2018-12-11T02:33:36.085Z,99.99
2018-12-11T02:34:44.144Z,99.99
2018-12-11T02:35:52.206Z,99.99
2018-12-11T02:37:00.773Z,99.99
2018-12-11T02:38:08.315Z,99.99
2018-12-11T02:39:16.355Z,99.99
2018-12-11T02:40:24.419Z,99.99
2018-12-11T02:41:32.473Z,99.99
2018-12-11T02:42:40.612Z,99.33
2018-12-11T02:43:48.655Z,98.66
2018-12-11T02:44:56.617Z,98.76
2018-12-11T02:46:04.676Z,98.76
2018-12-11T02:47:12.737Z,98.95
2018-12-11T02:48:20.777Z,99.23
2018-12-11T02:49:28.830Z,99.23
2018-12-11T02:50:36.875Z,98.95
2018-12-11T02:51:44.920Z,98.57
2018-12-11T02:52:53.071Z,98.66
2018-12-11T02:54:01.044Z,98.95
2018-12-11T02:55:09.100Z,98.66
2018-12-11T02:56:17.157Z,99.71
2018-12-11T02:57:25.204Z,99.89
2018-12-11T02:58:33.261Z,99.89
2018-12-11T02:59:41.298Z,99.89
2018-12-11T03:00:49.362Z,99.61
2018-12-11T03:01:57.416Z,99.23
2018-12-11T03:03:05.438Z,99.33
2018-12-11T03:04:13.519Z,98.57
2018-12-11T03:05:21.583Z,98.10
2018-12-11T03:06:29.620Z,97.81
2018-12-11T03:07:37.676Z,97.81
2018-12-11T03:08:45.712Z,97.34
2018-12-11T03:09:54.828Z,97.91
2018-12-11T03:11:01.855Z,97.53
2018-12-11T03:12:09.885Z,97.72
2018-12-11T03:13:17.946Z,97.44
2018-12-11T03:14:25.979Z,97.25
2018-12-11T03:15:34.043Z,95.83
2018-12-11T03:16:42.107Z,96.21
2018-12-11T03:17:50.161Z,96.78
2018-12-11T03:18:58.200Z,96.40
2018-12-11T03:20:06.251Z,96.21
2018-12-11T03:21:14.315Z,96.30
2018-12-11T03:22:22.358Z,95.64
2018-12-11T03:23:30.422Z,95.36
2018-12-11T03:24:38.476Z,94.51
2018-12-11T03:25:46.524Z,94.32
2018-12-11T03:26:54.583Z,93.66
2018-12-11T03:28:02.618Z,93.66
2018-12-11T03:29:10.677Z,94.13
2018-12-11T03:30:18.732Z,93.84
2018-12-11T03:31:26.775Z,94.41
2018-12-11T03:32:34.840Z,94.79
2018-12-11T03:33:42.888Z,94.70
2018-12-11T03:34:50.945Z,95.07
2018-12-11T03:35:59.007Z,94.79
2018-12-11T03:37:07.052Z,94.32
2018-12-11T03:38:15.085Z,94.70
2018-12-11T03:39:23.157Z,94.13
2018-12-11T03:40:31.299Z,94.22
2018-12-11T03:41:39.255Z,94.70
2018-12-11T03:42:47.317Z,94.41
2018-12-11T03:43:55.330Z,94.89
2018-12-11T03:45:03.413Z,95.92
2018-12-11T03:46:11.467Z,95.45
2018-12-11T03:47:19.519Z,95.07
2018-12-11T03:48:27.665Z,94.22
2018-12-11T03:49:35.617Z,94.89
2018-12-11T03:50:43.673Z,95.26
2018-12-11T03:51:51.736Z,94.79
2018-12-11T03:52:59.777Z,94.60
2018-12-11T03:54:07.848Z,94.79
2018-12-11T03:55:15.881Z,95.69
2018-12-11T03:56:23.967Z,94.70
2018-12-11T03:57:32.003Z,94.60
2018-12-11T03:58:40.058Z,95.73
2018-12-11T03:59:48.099Z,94.74
2018-12-11T04:00:56.163Z,96.40
2018-12-11T04:02:04.207Z,96.45
2018-12-11T04:03:12.270Z,96.26
2018-12-11T04:04:20.318Z,95.40
2018-12-11T04:05:28.368Z,95.31
2018-12-11T04:06:36.416Z,95.31
2018-12-11T04:07:44.476Z,97.77
2018-12-11T04:08:52.535Z,96.92
2018-12-11T04:10:00.593Z,95.97
2018-12-11T04:11:08.620Z,97.39
2018-12-11T04:12:16.687Z,98.33
2018-12-11T04:13:24.740Z,99.38
2018-12-11T04:14:32.794Z,97.96
2018-12-11T04:15:40.849Z,98.90
2018-12-11T04:16:48.896Z,99.99
2018-12-11T04:17:56.960Z,99.99
2018-12-11T04:19:05.001Z,99.99
2018-12-11T04:20:13.055Z,99.99
2018-12-11T04:21:21.121Z,99.99
2018-12-11T04:22:29.273Z,99.99
2018-12-11T04:23:37.220Z,99.99
2018-12-11T04:24:45.263Z,99.99
2018-12-11T04:25:53.326Z,99.99
2018-12-11T04:27:01.391Z,99.99
2018-12-11T04:28:09.430Z,99.99
2018-12-11T04:29:17.482Z,99.99
2018-12-11T04:30:25.511Z,99.99
2018-12-11T04:31:33.594Z,99.99
2018-12-11T04:32:41.662Z,99.99
2018-12-11T04:33:49.710Z,99.99
2018-12-11T04:34:57.761Z,99.99
2018-12-11T04:36:05.801Z,99.99
2018-12-11T04:37:13.880Z,99.99
2018-12-11T04:38:21.925Z,99.99
2018-12-11T04:39:33.731Z,99.99
2018-12-11T04:40:38.021Z,99.99
2018-12-11T04:41:46.070Z,99.99
2018-12-11T04:42:54.138Z,99.99
2018-12-11T04:44:02.195Z,99.99
2018-12-11T04:45:10.240Z,99.99
2018-12-11T04:46:18.295Z,99.99
2018-12-11T04:47:26.341Z,99.99
2018-12-11T04:48:34.396Z,99.99
2018-12-11T04:49:42.450Z,99.99
2018-12-11T04:50:50.502Z,99.99
2018-12-11T04:51:58.561Z,99.99
2018-12-11T04:53:06.611Z,99.99
2018-12-11T04:54:14.656Z,99.99
2018-12-11T04:55:22.705Z,99.99
2018-12-11T04:56:30.766Z,99.99
2018-12-11T04:57:38.822Z,99.99
2018-12-11T04:58:46.865Z,99.99
2018-12-11T04:59:54.913Z,99.99
2018-12-11T05:01:02.979Z,99.99
2018-12-11T05:02:11.037Z,99.99
2018-12-11T05:03:19.086Z,99.99
2018-12-11T05:04:27.140Z,99.99
2018-12-11T05:05:35.167Z,99.99
2018-12-11T05:06:43.260Z,99.99
2018-12-11T05:07:51.302Z,99.99
2018-12-11T05:08:59.352Z,99.99
2018-12-11T05:10:07.411Z,99.99
2018-12-11T05:11:15.427Z,99.99
2018-12-11T05:12:23.510Z,99.99
2018-12-11T05:13:31.566Z,99.99
2018-12-11T05:14:39.623Z,99.99
2018-12-11T05:15:47.676Z,99.99
2018-12-11T05:16:55.699Z,99.99
2018-12-11T05:18:03.775Z,99.99
2018-12-11T05:19:11.814Z,99.99
2018-12-11T05:20:19.880Z,99.99
2018-12-11T05:21:27.932Z,99.99
2018-12-11T05:22:35.978Z,99.99
2018-12-11T05:23:44.044Z,99.99
2018-12-11T05:24:52.098Z,99.99
2018-12-11T05:26:00.137Z,99.99
2018-12-11T05:27:08.186Z,99.99
2018-12-11T05:28:16.249Z,99.99
2018-12-11T05:29:24.291Z,99.99
2018-12-11T05:30:32.362Z,99.99
2018-12-11T05:31:40.408Z,99.99
2018-12-11T05:32:48.467Z,99.99
2018-12-11T05:33:56.515Z,99.99
2018-12-11T05:35:04.573Z,99.99
2018-12-11T05:36:12.626Z,99.99
2018-12-11T05:37:20.683Z,99.99
2018-12-11T05:38:28.729Z,99.99
2018-12-11T05:39:36.777Z,99.99
2018-12-11T05:40:44.821Z,99.99
2018-12-11T05:41:52.998Z,99.99
2018-12-11T05:43:00.942Z,99.99
2018-12-11T05:44:08.985Z,99.99
2018-12-11T05:45:17.033Z,99.99
2018-12-11T05:46:25.071Z,99.99
2018-12-11T05:47:33.147Z,99.99
2018-12-11T05:48:41.196Z,99.99
2018-12-11T05:49:49.245Z,99.99
2018-12-11T05:50:57.299Z,99.99
2018-12-11T05:52:05.319Z,99.99
2018-12-11T05:53:13.415Z,99.99
2018-12-11T05:54:21.491Z,99.99
2018-12-11T05:55:30.341Z,99.99
2018-12-11T05:56:37.559Z,99.99
2018-12-11T05:57:45.594Z,99.99
2018-12-11T05:58:53.676Z,99.99
2018-12-11T06:00:01.729Z,99.99
2018-12-11T06:01:09.774Z,99.99
2018-12-11T06:02:17.824Z,99.99
2018-12-11T06:03:25.869Z,99.99
2018-12-11T06:04:33.930Z,99.99
2018-12-11T06:05:41.984Z,99.99
2018-12-11T06:06:50.051Z,99.99
2018-12-11T06:07:58.221Z,99.99
2018-12-11T06:09:06.147Z,99.99
2018-12-11T06:10:14.194Z,99.99
2018-12-11T06:11:22.259Z,99.99
2018-12-11T06:12:30.308Z,99.99
2018-12-11T06:13:38.360Z,99.99
2018-12-11T06:14:48.197Z,99.99
2018-12-11T06:15:54.459Z,99.99
2018-12-11T06:17:02.625Z,99.99
2018-12-11T06:18:10.569Z,99.99
2018-12-11T06:19:18.617Z,99.99
2018-12-11T06:20:26.673Z,99.99
2018-12-11T06:21:34.719Z,99.99
2018-12-11T06:22:42.768Z,99.99
2018-12-11T06:23:50.833Z,99.99
2018-12-11T06:24:58.886Z,99.99
2018-12-11T06:26:06.937Z,99.99
2018-12-11T06:27:14.955Z,99.99
2018-12-11T06:28:23.032Z,99.99
2018-12-11T06:29:31.085Z,99.99
2018-12-11T06:30:39.133Z,99.99
2018-12-11T06:31:47.205Z,99.99
2018-12-11T06:32:55.250Z,99.99
2018-12-11T06:34:03.300Z,99.99
2018-12-11T06:35:11.349Z,99.99
2018-12-11T06:36:19.412Z,99.99
2018-12-11T06:37:27.453Z,99.99
2018-12-11T06:38:35.469Z,99.99
2018-12-11T06:39:43.573Z,99.99
2018-12-11T06:40:51.615Z,99.99
2018-12-11T06:41:59.674Z,99.99
2018-12-11T06:43:07.716Z,99.99
2018-12-11T06:44:15.737Z,99.99
2018-12-11T06:45:23.814Z,99.99
2018-12-11T06:46:31.871Z,99.99
2018-12-11T06:47:39.930Z,99.99
2018-12-11T06:48:47.969Z,99.99
2018-12-11T06:49:56.033Z,99.99
2018-12-11T06:51:04.080Z,99.99
2018-12-11T06:52:12.138Z,99.99
2018-12-11T06:53:20.184Z,99.99
2018-12-11T06:54:28.252Z,99.99
2018-12-11T06:55:36.297Z,99.99
2018-12-11T06:56:44.352Z,99.99
2018-12-11T06:57:52.395Z,99.99
2018-12-11T06:59:00.440Z,99.99
2018-12-11T07:00:08.500Z,99.99
2018-12-11T07:01:16.554Z,99.99
2018-12-11T07:02:24.596Z,99.99
2018-12-11T07:03:32.640Z,99.99
2018-12-11T07:04:40.709Z,99.99
2018-12-11T07:05:48.755Z,99.99
2018-12-11T07:06:56.818Z,99.08
2018-12-11T07:08:04.843Z,99.56
2018-12-11T07:09:12.925Z,99.27
2018-12-11T07:10:20.969Z,99.08
2018-12-11T07:11:29.021Z,99.08
2018-12-11T07:12:37.082Z,99.37
2018-12-11T07:13:45.111Z,98.43
2018-12-11T07:14:53.178Z,98.24
2018-12-11T07:16:01.230Z,97.20
2018-12-11T07:17:09.290Z,97.29
2018-12-11T07:18:17.339Z,97.20
2018-12-11T07:19:25.380Z,97.20
2018-12-11T07:20:33.437Z,96.91
2018-12-11T07:21:41.497Z,96.63
2018-12-11T07:22:49.556Z,96.82
2018-12-11T07:23:57.612Z,96.87
2018-12-11T07:25:05.633Z,96.96
2018-12-11T07:26:13.702Z,97.25
2018-12-11T07:27:21.760Z,98.38
2018-12-11T07:28:29.809Z,98.66
2018-12-11T07:29:37.857Z,98.47
2018-12-11T07:30:45.906Z,98.76
2018-12-11T07:31:53.956Z,99.33
2018-12-11T07:33:02.024Z,99.14
2018-12-11T07:34:10.074Z,99.99
2018-12-11T07:35:18.126Z,99.99
2018-12-11T07:36:26.170Z,99.99
2018-12-11T07:37:34.225Z,99.99
2018-12-11T07:38:42.266Z,99.99
2018-12-11T07:39:50.328Z,99.99
2018-12-11T07:40:58.386Z,99.99
2018-12-11T07:42:06.445Z,99.99
2018-12-11T07:43:14.493Z,99.99
2018-12-11T07:44:22.549Z,99.99
2018-12-11T07:45:30.596Z,99.99
2018-12-11T07:46:38.643Z,99.99
2018-12-11T07:47:46.688Z,99.99
2018-12-11T07:48:54.743Z,99.99
2018-12-11T07:50:02.806Z,99.99
2018-12-11T07:51:10.859Z,99.84
2018-12-11T07:52:18.900Z,99.99
2018-12-11T07:53:26.960Z,99.99
2018-12-11T07:54:35.009Z,99.99
2018-12-11T07:55:43.056Z,99.99
2018-12-11T07:56:51.111Z,99.99
2018-12-11T07:57:59.166Z,99.99
2018-12-11T07:59:07.215Z,99.61
2018-12-11T08:00:15.254Z,99.71
2018-12-11T08:01:23.325Z,99.14
2018-12-11T08:02:31.381Z,99.42
2018-12-11T08:03:39.430Z,99.33
2018-12-11T08:04:47.485Z,99.52
2018-12-11T08:05:55.527Z,99.52
2018-12-11T08:07:03.604Z,99.71
2018-12-11T08:08:11.645Z,99.61
2018-12-11T08:09:19.684Z,99.52
2018-12-11T08:10:27.753Z,98.95
2018-12-11T08:11:35.777Z,99.89
2018-12-11T08:12:43.852Z,99.33
2018-12-11T08:13:51.904Z,98.95
2018-12-11T08:14:59.961Z,98.28
2018-12-11T08:16:08.016Z,98.57
2018-12-11T08:17:16.061Z,99.23
2018-12-11T08:18:24.116Z,98.47
2018-12-11T08:19:32.172Z,98.57
2018-12-11T08:20:40.216Z,98.24
2018-12-11T08:21:48.286Z,98.62
2018-12-11T08:22:56.318Z,99.38
2018-12-11T08:24:04.388Z,99.85
2018-12-11T08:25:12.449Z,99.28
2018-12-11T08:26:20.484Z,99.66
2018-12-11T08:27:28.548Z,99.99
2018-12-11T08:28:36.593Z,99.99
2018-12-11T08:29:44.663Z,99.99
2018-12-11T08:30:52.710Z,99.99
2018-12-11T08:32:00.764Z,99.99
2018-12-11T08:33:08.800Z,99.99
2018-12-11T08:34:16.870Z,99.99
2018-12-11T08:35:24.906Z,99.99
2018-12-11T08:36:32.969Z,99.99
2018-12-11T08:37:41.031Z,99.99
2018-12-11T08:38:49.077Z,99.99
2018-12-11T08:39:57.141Z,99.99
2018-12-11T08:41:05.177Z,99.99
2018-12-11T08:42:13.239Z,99.99
2018-12-11T08:43:21.342Z,99.99
2018-12-11T08:44:29.354Z,99.99
2018-12-11T08:45:37.400Z,99.99
2018-12-11T08:46:45.439Z,99.99
2018-12-11T08:47:53.511Z,99.99
2018-12-11T08:49:01.572Z,99.99
2018-12-11T08:50:09.621Z,99.99
2018-12-11T08:51:17.674Z,99.99
2018-12-11T08:52:25.708Z,99.99
2018-12-11T08:53:33.786Z,99.99
2018-12-11T08:54:41.843Z,99.99
2018-12-11T08:55:49.892Z,99.99
2018-12-11T08:56:57.946Z,99.99
2018-12-11T08:58:05.989Z,99.99
2018-12-11T08:59:14.059Z,99.99
2018-12-11T09:00:22.109Z,99.99
2018-12-11T09:01:30.165Z,99.99
2018-12-11T09:02:38.214Z,99.99
2018-12-11T09:03:46.270Z,99.99
2018-12-11T09:04:54.324Z,99.99
2018-12-11T09:06:02.386Z,99.99
2018-12-11T09:07:10.440Z,99.99
2018-12-11T09:08:18.502Z,99.99
2018-12-11T09:09:26.544Z,99.99
2018-12-11T09:10:34.589Z,99.99
2018-12-11T09:11:42.649Z,99.99
2018-12-11T09:12:50.701Z,99.99
2018-12-11T09:13:58.763Z,99.99
2018-12-11T09:15:06.804Z,99.99
2018-12-11T09:16:14.853Z,99.99
2018-12-11T09:17:22.927Z,99.99
2018-12-11T09:18:30.993Z,99.99
2018-12-11T09:19:39.060Z,99.99
2018-12-11T09:20:47.099Z,99.99
2018-12-11T09:21:55.121Z,99.99
2018-12-11T09:23:03.194Z,99.99
2018-12-11T09:24:11.254Z,99.99
2018-12-11T09:25:19.312Z,99.99
2018-12-11T09:26:28.278Z,99.99
2018-12-11T09:27:35.393Z,99.99
2018-12-11T09:28:43.480Z,99.99
2018-12-11T09:29:51.558Z,99.99
2018-12-11T09:30:59.590Z,99.99
2018-12-11T09:32:07.629Z,99.99
2018-12-11T09:33:15.662Z,99.99
2018-12-11T09:34:23.739Z,99.99
2018-12-11T09:35:31.800Z,99.99
2018-12-11T09:36:39.849Z,99.99
2018-12-11T09:37:47.905Z,99.99
2018-12-11T09:38:55.947Z,99.99
2018-12-11T09:40:04.023Z,99.99
2018-12-11T09:41:12.070Z,99.99
2018-12-11T09:42:20.130Z,99.99
2018-12-11T09:43:28.184Z,99.99
2018-12-11T09:44:36.248Z,99.99
2018-12-11T09:45:44.295Z,99.99
2018-12-11T09:46:52.356Z,99.99
2018-12-11T09:48:00.438Z,99.99
2018-12-11T09:49:08.455Z,99.99
2018-12-11T09:50:16.520Z,99.99
2018-12-11T09:51:24.568Z,99.99
2018-12-11T09:52:32.629Z,99.99
2018-12-11T09:53:40.686Z,99.99
2018-12-11T09:54:48.733Z,99.99
2018-12-11T09:55:56.790Z,99.99
2018-12-11T09:57:04.848Z,99.99
2018-12-11T09:58:12.897Z,99.99
2018-12-11T09:59:23.484Z,99.99
2018-12-11T10:00:29.035Z,99.99
2018-12-11T10:01:37.069Z,99.99
2018-12-11T10:02:45.118Z,99.99
2018-12-11T10:03:53.183Z,99.99
2018-12-11T10:05:01.275Z,99.99
2018-12-11T10:06:09.441Z,99.99
2018-12-11T10:07:17.348Z,99.99
2018-12-11T10:08:25.389Z,99.99
2018-12-11T10:09:33.465Z,99.99
2018-12-11T10:10:41.512Z,99.99
2018-12-11T10:11:49.574Z,99.99
2018-12-11T10:12:57.623Z,99.99
2018-12-11T10:14:05.658Z,99.99
2018-12-11T10:15:13.745Z,99.99
2018-12-11T10:16:21.789Z,99.99
2018-12-11T10:17:29.843Z,99.99
2018-12-11T10:18:37.894Z,99.99
2018-12-11T10:19:45.956Z,99.99
2018-12-11T10:20:54.005Z,99.99
2018-12-11T10:22:02.063Z,99.99
2018-12-11T10:23:10.133Z,99.99
2018-12-11T10:24:18.193Z,99.99
2018-12-11T10:25:26.243Z,99.99
2018-12-11T10:26:34.376Z,99.99
2018-12-11T10:27:42.355Z,99.99
2018-12-11T10:28:50.426Z,99.99
2018-12-11T10:29:59.364Z,99.99
2018-12-11T10:31:06.580Z,99.99
2018-12-11T10:32:14.582Z,99.99
2018-12-11T10:33:22.820Z,99.99
2018-12-11T10:34:30.701Z,99.99
2018-12-11T10:35:38.749Z,99.99
2018-12-11T10:36:46.808Z,99.99
2018-12-11T10:37:54.856Z,99.99
2018-12-11T10:39:02.942Z,99.99
2018-12-11T10:40:10.972Z,99.99
2018-12-11T10:41:19.030Z,99.99
2018-12-11T10:42:27.098Z,99.99
2018-12-11T10:43:35.124Z,99.99
2018-12-11T10:44:43.404Z,99.99
2018-12-11T10:45:51.298Z,99.99
2018-12-11T10:46:59.313Z,99.99
2018-12-11T10:48:07.402Z,99.99
2018-12-11T10:49:15.416Z,99.99
2018-12-11T10:50:23.498Z,99.99
2018-12-11T10:51:31.559Z,99.99
2018-12-11T10:52:39.608Z,99.99
2018-12-11T10:53:47.666Z,99.99
2018-12-11T10:54:55.701Z,99.99
2018-12-11T10:56:03.770Z,99.99
2018-12-11T10:57:11.823Z,99.99
2018-12-11T10:58:20.087Z,99.99
2018-12-11T10:59:27.941Z,99.99
2018-12-11T11:00:35.998Z,99.99
2018-12-11T11:01:44.226Z,99.99
2018-12-11T11:02:52.348Z,99.99
2018-12-11T11:04:00.163Z,99.99
2018-12-11T11:05:08.224Z,99.99
2018-12-11T11:06:16.349Z,99.99
2018-12-11T11:07:24.495Z,99.99
2018-12-11T11:08:32.742Z,99.99
2018-12-11T11:09:40.460Z,99.99
2018-12-11T11:10:48.522Z,99.99
2018-12-11T11:11:56.569Z,99.99
2018-12-11T11:13:04.636Z,99.99
2018-12-11T11:14:12.684Z,99.99
2018-12-11T11:15:21.114Z,99.99
2018-12-11T11:16:29.207Z,99.99
2018-12-11T11:17:36.864Z,99.99
2018-12-11T11:18:45.142Z,99.99
2018-12-11T11:19:53.168Z,99.99
2018-12-11T11:21:01.204Z,99.99
2018-12-11T11:22:09.302Z,99.99
2018-12-11T11:23:17.147Z,99.99
2018-12-11T11:24:25.392Z,99.99
2018-12-11T11:25:33.438Z,99.99
2018-12-11T11:26:41.524Z,99.99
2018-12-11T11:27:49.825Z,99.99
2018-12-11T11:28:57.562Z,99.99
2018-12-11T11:30:06.042Z,99.99
2018-12-11T11:31:14.203Z,99.99
2018-12-11T11:32:22.376Z,99.99
2018-12-11T11:33:29.864Z,99.99
2018-12-11T11:34:37.725Z,99.99
2018-12-11T11:35:45.805Z,99.99
2018-12-11T11:36:53.819Z,99.99
2018-12-11T11:38:02.255Z,99.99
2018-12-11T11:39:10.608Z,99.99
2018-12-11T11:40:18.617Z,99.99
2018-12-11T11:41:26.674Z,99.99
2018-12-11T11:42:34.791Z,99.99
2018-12-11T11:43:42.710Z,99.99
2018-12-11T11:44:51.226Z,99.99
2018-12-11T11:45:58.972Z,99.99
2018-12-11T11:47:07.000Z,99.99
2018-12-11T11:48:15.718Z,99.99
2018-12-11T11:49:23.511Z,99.99
2018-12-11T11:50:31.492Z,99.99
2018-12-11T11:51:40.195Z,99.99
2018-12-11T11:52:47.258Z,99.99
2018-12-11T11:53:55.348Z,99.99
2018-12-11T11:55:03.294Z,99.99
2018-12-11T11:56:11.402Z,99.99
2018-12-11T11:57:19.553Z,99.99
2018-12-11T11:58:27.580Z,98.07
2018-12-11T11:59:38.663Z,99.99
2018-12-11T12:00:44.516Z,99.99
2018-12-11T12:01:51.720Z,99.99
2018-12-11T12:02:59.805Z,99.99
2018-12-11T12:04:07.842Z,99.99
2018-12-11T12:05:15.884Z,99.99
2018-12-11T12:06:25.284Z,99.99
2018-12-11T12:07:32.008Z,99.99
2018-12-11T12:08:40.129Z,99.99
2018-12-11T12:09:48.712Z,99.99
2018-12-11T12:10:56.269Z,99.99
2018-12-11T12:12:05.465Z,99.99
2018-12-11T12:13:12.189Z,99.99
2018-12-11T12:14:20.158Z,99.99
2018-12-11T12:15:28.439Z,99.99
2018-12-11T12:16:38.048Z,99.99
2018-12-11T12:17:44.466Z,99.99
2018-12-11T12:18:54.629Z,99.21
2018-12-11T12:20:00.445Z,96.64
2018-12-11T12:21:09.720Z,98.54
2018-12-11T12:22:18.238Z,91.61
2018-12-11T12:23:24.819Z,99.99
2018-12-11T12:24:34.746Z,99.99
2018-12-11T12:25:40.582Z,99.99
2018-12-11T12:26:49.047Z,99.99
2018-12-11T12:27:56.910Z,99.99
2018-12-11T12:29:05.194Z,99.99
2018-12-11T12:30:13.554Z,99.99
2018-12-11T12:31:21.121Z,99.99
2018-12-11T12:32:34.524Z,99.99
2018-12-11T12:33:37.391Z,99.63
2018-12-11T12:34:45.421Z,92.42
2018-12-11T12:35:53.533Z,93.84
2018-12-11T12:37:01.339Z,99.99
2018-12-11T12:38:09.664Z,96.69
2018-12-11T12:39:17.401Z,99.99
2018-12-11T12:40:25.763Z,99.26
2018-12-11T12:41:33.724Z,99.99
2018-12-11T12:42:41.839Z,99.99
2018-12-11T12:43:50.990Z,99.99
2018-12-11T12:45:03.269Z,99.77
2018-12-11T12:46:05.604Z,99.11
2018-12-11T12:47:14.397Z,99.99
2018-12-11T12:48:22.518Z,99.99
2018-12-11T12:49:30.195Z,99.99
2018-12-11T12:50:38.191Z,99.99
2018-12-11T12:51:46.226Z,99.99
2018-12-11T12:52:54.300Z,99.99
2018-12-11T12:54:02.230Z,99.99
2018-12-11T12:55:10.281Z,99.99
2018-12-11T12:56:18.421Z,99.99
2018-12-11T12:57:26.338Z,99.11
2018-12-11T12:58:34.296Z,99.99
2018-12-11T12:59:42.630Z,97.02
2018-12-11T13:00:51.051Z,98.54
2018-12-11T13:01:58.781Z,99.99
2018-12-11T13:03:06.833Z,98.73
2018-12-11T13:04:14.805Z,99.99
2018-12-11T13:05:23.890Z,99.99
2018-12-11T13:06:31.052Z,94.18
2018-12-11T13:07:39.102Z,99.99
2018-12-11T13:08:47.068Z,99.99
2018-12-11T13:09:55.234Z,99.99
2018-12-11T13:11:03.334Z,99.99
2018-12-11T13:12:11.010Z,99.99
2018-12-11T13:13:19.200Z,98.07
2018-12-11T13:14:27.261Z,97.12
2018-12-11T13:15:35.474Z,99.99
2018-12-11T13:16:44.498Z,99.99
2018-12-11T13:17:51.646Z,99.99
2018-12-11T13:18:59.608Z,94.18
2018-12-11T13:20:07.755Z,99.63
2018-12-11T13:21:15.708Z,99.99
2018-12-11T13:22:25.471Z,99.25
2018-12-11T13:23:31.821Z,98.96
2018-12-11T13:24:39.919Z,99.99
2018-12-11T13:25:48.036Z,99.99
2018-12-11T13:26:55.988Z,99.99
2018-12-11T13:28:04.049Z,99.99
2018-12-11T13:29:12.132Z,99.99
2018-12-11T13:30:20.211Z,99.25
2018-12-11T13:31:28.313Z,99.99
2018-12-11T13:32:36.378Z,95.45
2018-12-11T13:33:44.426Z,96.50
2018-12-11T13:34:52.468Z,99.99
2018-12-11T13:36:00.523Z,98.87
2018-12-11T13:37:08.598Z,99.99
2018-12-11T13:38:16.575Z,99.99
2018-12-11T13:39:24.666Z,99.99
2018-12-11T13:40:32.628Z,99.15
2018-12-11T13:41:40.747Z,99.99
2018-12-11T13:42:48.705Z,99.99
2018-12-11T13:43:56.871Z,99.99
2018-12-11T13:45:04.798Z,99.99
2018-12-11T13:46:12.888Z,99.99
2018-12-11T13:47:21.111Z,98.21
2018-12-11T13:48:28.949Z,93.18
2018-12-11T13:49:36.929Z,93.65
2018-12-11T13:50:45.146Z,97.16
2018-12-11T13:51:52.902Z,99.99
2018-12-11T13:53:01.048Z,99.99
2018-12-11T13:54:09.061Z,98.30
2018-12-11T13:55:17.392Z,98.87
2018-12-11T13:56:25.568Z,99.99
2018-12-11T13:57:33.335Z,99.99
2018-12-11T13:58:41.389Z,99.99
2018-12-11T13:59:49.533Z,99.99
2018-12-11T14:00:57.552Z,99.99
2018-12-11T14:02:05.763Z,99.99
2018-12-11T14:03:13.734Z,99.99
2018-12-11T14:04:21.939Z,99.30
2018-12-11T14:05:29.810Z,99.99
2018-12-11T14:06:37.835Z,99.99
2018-12-11T14:07:46.012Z,99.99
2018-12-11T14:08:53.998Z,99.99
2018-12-11T14:10:02.025Z,99.99
2018-12-11T14:11:09.920Z,99.99
2018-12-11T14:12:18.135Z,99.99
2018-12-11T14:13:26.270Z,99.99
2018-12-11T14:14:34.042Z,99.99
2018-12-11T14:15:42.165Z,99.99
2018-12-11T14:16:50.214Z,99.99
2018-12-11T14:17:58.234Z,99.99
2018-12-11T14:19:06.567Z,99.99
2018-12-11T14:20:14.093Z,99.99
2018-12-11T14:21:22.135Z,99.99
2018-12-11T14:22:30.206Z,99.99
2018-12-11T14:23:38.261Z,99.99
2018-12-11T14:24:46.311Z,99.99
2018-12-11T14:25:54.370Z,99.99
2018-12-11T14:27:02.447Z,99.99
2018-12-11T14:28:10.887Z,99.99
2018-12-11T14:29:18.561Z,99.99
2018-12-11T14:30:26.592Z,99.99
2018-12-11T14:31:34.660Z,99.99
2018-12-11T14:32:42.820Z,99.99
2018-12-11T14:33:50.891Z,99.99
2018-12-11T14:34:58.825Z,99.99
2018-12-11T14:36:07.249Z,99.99